Chrysanthemum — C6XO4 — position and weather

sailwx.info

Track history (hours):
 
Tides and Currents Weather Stations Pressure Air Temp Water Temp Dewpoint Dewpoint Depression Visibility Wind Speed Wind Dir Waves Ship Positions

Chrysanthemum

Last reported at 2015-Jan-03 02:18 UTC. Time now 2015-Jan-29 14:26 UTC.
Position N 01°55' E 102°19'.
Warning: this ship's position is 26 days out of date.

Length 244 m; draft 7.8 m.

Type: Tanker. MMSI: 311015300.

Date/timePositionNaut miles runAvg speedWind from/ knotsBaromVisibWave heightAir tempDewpointWater temp
2015-Jan-03 02:18N 01°55' E 102°19'1012.9
2015-Jan-03 01:33N 01°52' E 102°27'1212.3
2015-Jan-03 00:33N 01°46' E 102°39'1412.0
2015-Jan-02 23:23N 01°41' E 102°51'6611.2
2015-Jan-02 17:31N 01°11' E 103°50'10 9.8
2015-Jan-02 16:31N 01°17' E 103°58'0 0.2
2015-Jan-02 15:28N 01°17' E 103°58'0 0.0
2015-Jan-02 14:16N 01°17' E 103°58'0 0.0
2015-Jan-02 13:22N 01°17' E 103°58'0 0.0
2015-Jan-02 12:13N 01°17' E 103°58'0 0.0
2015-Jan-02 11:22N 01°17' E 103°58'0 0.0
2015-Jan-02 10:04N 01°16' E 103°58'0 0.0
2015-Jan-02 09:28N 01°16' E 103°58'0 0.2
2015-Jan-02 08:22N 01°17' E 103°58'1 1.7
2015-Jan-02 07:33N 01°16' E 103°60'8 8.1
2015-Jan-02 06:33N 01°17' E 104°08'6 5.8
2015-Jan-02 05:33N 01°17' E 104°14'  
Track history (hours):
 
Tides and Currents Weather Stations Pressure Air Temp Water Temp Dewpoint Dewpoint Depression Visibility Wind Speed Wind Dir Waves Ship Positions

Chrysanthemum

Last reported at 2015-Jan-03 02:18 UTC. Time now 2015-Jan-29 14:26 UTC.
Position N 01°55' E 102°19'.
Warning: this ship's position is 26 days out of date.

Length 244 m; draft 7.8 m.

Type: Tanker. MMSI: 311015300.

Date/timePositionNaut miles runAvg speedWind from/ knotsBaromVisibWave heightAir tempDewpointWater temp
2015-Jan-03 02:18N 01°55' E 102°19'1012.9
2015-Jan-03 01:33N 01°52' E 102°27'1212.3
2015-Jan-03 00:33N 01°46' E 102°39'1412.0
2015-Jan-02 23:23N 01°41' E 102°51'6611.2
2015-Jan-02 17:31N 01°11' E 103°50'10 9.8
2015-Jan-02 16:31N 01°17' E 103°58'0 0.2
2015-Jan-02 15:28N 01°17' E 103°58'0 0.0
2015-Jan-02 14:16N 01°17' E 103°58'0 0.0
2015-Jan-02 13:22N 01°17' E 103°58'0 0.0
2015-Jan-02 12:13N 01°17' E 103°58'0 0.0
2015-Jan-02 11:22N 01°17' E 103°58'0 0.0
2015-Jan-02 10:04N 01°16' E 103°58'0 0.0
2015-Jan-02 09:28N 01°16' E 103°58'0 0.2
2015-Jan-02 08:22N 01°17' E 103°58'1 1.7
2015-Jan-02 07:33N 01°16' E 103°60'8 8.1
2015-Jan-02 06:33N 01°17' E 104°08'6 5.8
2015-Jan-02 05:33N 01°17' E 104°14'  

Dump ship's entire track history